Time;durP1;ratioP1;P1;durP2;ratioP2;P2;SDS_P1;SDS_P2;PMS_P1;PMS_P2;Temp;Humidity;BMP_temperature;BMP_pressure;BME280_temperature;BME280_humidity;BME280_pressure;Samples;Min_cycle;Max_cycle;Signal;HPM_P1;HPM_P2
2021/12/16 00:09:35;;;;;;;31.43;18.17;;;9.00;99.90;;;;;;5029410;28;20237;-74
2021/12/16 00:31:24;;;;;;;28.23;17.73;;;8.90;99.90;;;;;;5029077;28;20212;-72
2021/12/16 00:34:02;;;;;;;26.33;17.77;;;8.90;99.90;;;;;;5029264;28;20227;-72
2021/12/16 00:36:32;;;;;;;25.80;17.27;;;8.90;99.90;;;;;;5029197;28;20667;-73
2021/12/16 00:39:00;;;;;;;27.80;18.87;;;8.90;99.90;;;;;;5029418;28;20585;-73
2021/12/16 00:41:26;;;;;;;26.33;17.70;;;8.90;99.90;;;;;;5029312;28;20221;-72
2021/12/16 00:44:00;;;;;;;29.93;18.67;;;8.90;99.90;;;;;;5028559;28;20217;-72
2021/12/16 00:46:56;;;;;;;26.57;17.37;;;8.90;99.90;;;;;;5028972;28;20231;-72
2021/12/16 00:49:37;;;;;;;27.90;17.70;;;8.90;99.90;;;;;;5028476;28;21001;-72
2021/12/16 00:55:02;;;;;;;26.60;18.03;;;8.80;99.90;;;;;;5028358;28;20259;-73
2021/12/16 00:57:29;;;;;;;25.63;17.00;;;8.80;99.90;;;;;;5028597;28;20214;-73
2021/12/16 01:00:00;;;;;;;28.57;17.87;;;8.80;99.90;;;;;;5028984;28;20300;-73
2021/12/16 01:02:46;;;;;;;26.17;17.77;;;8.80;99.90;;;;;;5028713;28;20189;-73
2021/12/16 01:05:40;;;;;;;29.33;17.83;;;8.80;99.90;;;;;;5028697;28;20201;-73
2021/12/16 01:08:26;;;;;;;27.10;16.67;;;8.80;99.90;;;;;;5028835;28;20228;-73
2021/12/16 01:35:46;;;;;;;23.23;15.50;;;8.80;99.90;;;;;;5028262;28;20654;-73
2021/12/16 01:38:50;;;;;;;21.57;15.57;;;8.80;99.90;;;;;;5028261;28;20201;-73
2021/12/16 01:42:06;;;;;;;22.60;14.70;;;8.80;99.90;;;;;;5027589;28;20220;-73
2021/12/16 01:50:02;;;;;;;21.57;12.60;;;8.90;99.90;;;;;;5022405;28;20217;-72
2021/12/16 01:55:19;;;;;;;17.07;11.50;;;8.90;99.90;;;;;;5016106;28;20245;-74
2021/12/16 01:57:50;;;;;;;15.20;11.00;;;8.90;99.90;;;;;;5032067;28;20784;-74
2021/12/16 02:00:29;;;;;;;15.60;11.13;;;8.90;99.90;;;;;;5032204;28;20189;-74
2021/12/16 02:03:01;;;;;;;15.40;11.53;;;8.90;99.90;;;;;;5032165;28;20193;-73
2021/12/16 02:05:49;;;;;;;13.13;10.40;;;8.80;99.90;;;;;;5032136;28;20572;-74
2021/12/16 02:08:22;;;;;;;16.60;10.77;;;8.80;99.90;;;;;;5031785;28;20232;-72
2021/12/16 02:11:03;;;;;;;16.67;10.47;;;8.90;99.90;;;;;;5032095;28;20204;-72
2021/12/16 02:27:16;;;;;;;16.13;10.10;;;8.90;99.90;;;;;;5031847;28;20200;-72
2021/12/16 02:27:46;;;;;;;13.93;9.60;;;8.80;99.90;;;;;;5031472;28;20537;-72
2021/12/16 02:36:02;;;;;;;13.00;9.50;;;8.80;99.90;;;;;;5031561;28;20205;-75
2021/12/16 02:38:33;;;;;;;13.87;9.97;;;8.80;99.90;;;;;;5031821;28;20192;-75
2021/12/16 02:41:01;;;;;;;14.20;9.83;;;8.80;99.90;;;;;;5031832;28;20227;-75
2021/12/16 02:43:54;;;;;;;13.30;8.80;;;8.80;99.90;;;;;;5031608;28;20263;-73
2021/12/16 02:49:17;;;;;;;14.50;9.73;;;8.80;99.90;;;;;;4969748;28;20638;-73
2021/12/16 02:51:46;;;;;;;13.97;9.33;;;8.70;99.90;;;;;;5016435;28;20208;-73
2021/12/16 02:54:14;;;;;;;14.07;10.03;;;8.70;99.90;;;;;;5030926;28;20280;-73
2021/12/16 02:56:41;;;;;;;11.00;9.00;;;8.80;99.90;;;;;;5030900;28;20923;-73
2021/12/16 02:59:08;;;;;;;13.03;9.10;;;8.70;99.90;;;;;;5031032;28;20201;-73
2021/12/16 03:01:38;;;;;;;12.87;8.93;;;8.70;99.90;;;;;;5031017;28;20265;-73
2021/12/16 03:04:09;;;;;;;10.93;8.87;;;8.70;99.90;;;;;;5030999;28;20220;-74
2021/12/16 03:06:38;;;;;;;12.23;8.37;;;8.70;99.90;;;;;;5030383;28;20247;-73
2021/12/16 03:09:07;;;;;;;12.23;8.73;;;8.80;99.90;;;;;;5030990;28;20259;-73
2021/12/16 03:11:45;;;;;;;10.10;8.43;;;8.70;99.90;;;;;;5030839;28;20211;-73
2021/12/16 03:17:07;;;;;;;11.03;8.23;;;8.70;99.90;;;;;;5028444;28;20220;-73
2021/12/16 03:19:45;;;;;;;12.00;7.73;;;8.70;99.90;;;;;;5030397;28;20922;-73
2021/12/16 03:22:25;;;;;;;10.60;7.83;;;8.70;99.90;;;;;;5030519;28;20579;-75
2021/12/16 03:25:10;;;;;;;11.23;8.03;;;8.70;99.90;;;;;;5030685;28;20224;-75
2021/12/16 03:33:20;;;;;;;12.00;7.80;;;8.70;99.90;;;;;;4997155;28;20239;-73
2021/12/16 03:36:03;;;;;;;11.30;7.90;;;8.70;99.90;;;;;;5030473;28;20221;-73
2021/12/16 03:38:32;;;;;;;10.40;7.77;;;8.70;99.90;;;;;;5030176;28;20644;-72
2021/12/16 03:40:59;;;;;;;9.73;7.80;;;8.70;99.90;;;;;;5030695;28;20262;-72
2021/12/16 03:43:28;;;;;;;11.60;7.30;;;8.70;99.90;;;;;;5030503;28;20267;-72
2021/12/16 03:48:49;;;;;;;10.53;8.53;;;8.70;99.90;;;;;;5030041;28;20223;-75
2021/12/16 03:51:20;;;;;;;10.47;7.57;;;8.70;99.90;;;;;;5030375;28;20230;-75
2021/12/16 03:53:49;;;;;;;11.83;7.40;;;8.70;99.90;;;;;;5030159;28;20644;-75
2021/12/16 03:56:16;;;;;;;12.43;8.00;;;8.70;99.90;;;;;;5030098;28;20276;-73
2021/12/16 03:58:45;;;;;;;10.77;8.00;;;8.70;99.90;;;;;;5030269;28;20266;-73
2021/12/16 04:01:18;;;;;;;9.13;7.23;;;8.70;99.90;;;;;;5029652;28;20947;-73
2021/12/16 04:03:45;;;;;;;10.00;7.83;;;8.70;99.90;;;;;;5030040;28;20544;-73
2021/12/16 04:06:13;;;;;;;9.50;7.67;;;8.70;99.90;;;;;;5029885;28;20286;-73
2021/12/16 04:08:40;;;;;;;10.90;7.60;;;8.70;99.90;;;;;;5029691;28;20224;-73
2021/12/16 04:11:12;;;;;;;10.43;7.93;;;8.70;99.90;;;;;;5029651;28;20604;-74
2021/12/16 04:13:53;;;;;;;12.90;8.57;;;8.70;99.90;;;;;;5029677;28;20201;-75
2021/12/16 04:16:21;;;;;;;8.43;7.40;;;8.70;99.90;;;;;;5029729;28;20200;-74
2021/12/16 04:18:48;;;;;;;11.57;7.90;;;8.70;99.90;;;;;;5028623;28;20618;-75
2021/12/16 04:21:19;;;;;;;9.90;7.47;;;8.70;99.90;;;;;;5029650;28;20339;-75
2021/12/16 04:23:45;;;;;;;10.27;8.07;;;8.70;99.90;;;;;;5029820;28;20235;-74
2021/12/16 04:26:13;;;;;;;9.53;7.93;;;8.70;99.90;;;;;;5029582;28;20227;-74
2021/12/16 04:28:39;;;;;;;11.13;7.73;;;8.70;99.90;;;;;;5029561;28;20213;-74
2021/12/16 04:31:06;;;;;;;10.60;8.17;;;8.60;99.90;;;;;;5029544;28;20209;-74
2021/12/16 04:33:39;;;;;;;12.00;8.53;;;8.60;99.90;;;;;;5029338;28;20279;-75
2021/12/16 04:36:09;;;;;;;14.33;8.10;;;8.60;99.90;;;;;;5029260;28;20225;-74
2021/12/16 04:38:37;;;;;;;11.07;8.20;;;8.60;99.90;;;;;;5029438;28;20255;-74
2021/12/16 04:41:09;;;;;;;9.60;8.17;;;8.50;99.90;;;;;;5028903;28;20215;-74
2021/12/16 04:43:40;;;;;;;10.03;7.83;;;8.60;99.90;;;;;;5029142;28;20223;-74
2021/12/16 04:46:08;;;;;;;10.77;8.50;;;8.60;99.90;;;;;;5028897;28;20707;-74
2021/12/16 04:48:37;;;;;;;13.13;8.00;;;8.50;99.90;;;;;;5028714;28;20236;-74
2021/12/16 04:51:07;;;;;;;12.03;8.00;;;8.50;99.90;;;;;;5029337;28;20205;-77
2021/12/16 04:53:36;;;;;;;13.00;8.43;;;8.50;99.90;;;;;;5028797;28;20254;-75
2021/12/16 04:56:11;;;;;;;12.57;8.20;;;8.50;99.90;;;;;;5029002;28;20233;-74
2021/12/16 04:58:39;;;;;;;10.53;7.97;;;8.50;99.90;;;;;;5029383;28;20270;-74
2021/12/16 05:01:09;;;;;;;12.03;8.20;;;8.50;99.90;;;;;;5029276;28;20204;-74
2021/12/16 05:03:37;;;;;;;10.83;8.03;;;8.50;99.90;;;;;;5028992;28;20208;-74
2021/12/16 05:06:07;;;;;;;9.30;7.57;;;8.50;99.90;;;;;;5029209;28;20212;-75
2021/12/16 05:08:34;;;;;;;11.80;8.20;;;8.50;99.90;;;;;;5029045;28;20224;-75
2021/12/16 05:11:03;;;;;;;13.87;8.60;;;8.50;99.90;;;;;;5029019;28;20204;-75
2021/12/16 05:13:33;;;;;;;10.30;8.30;;;8.50;99.90;;;;;;5028960;28;20600;-75
2021/12/16 05:16:03;;;;;;;12.13;8.40;;;8.50;99.90;;;;;;5029078;28;20235;-75
2021/12/16 05:18:36;;;;;;;13.13;8.13;;;8.40;99.90;;;;;;5028694;28;20201;-75
2021/12/16 05:21:13;;;;;;;11.90;9.47;;;8.50;99.90;;;;;;5029094;28;20247;-75
2021/12/16 05:26:24;;;;;;;14.57;9.33;;;8.30;99.90;;;;;;5028183;28;20706;-72
2021/12/16 05:28:53;;;;;;;13.07;9.43;;;8.30;99.90;;;;;;5028643;28;20295;-73
2021/12/16 05:31:21;;;;;;;16.30;9.80;;;8.20;99.90;;;;;;5028248;28;20201;-75
2021/12/16 05:33:49;;;;;;;16.93;10.07;;;8.20;99.90;;;;;;5028430;28;20267;-74
2021/12/16 05:36:17;;;;;;;15.73;10.63;;;8.20;99.90;;;;;;5028153;28;20237;-75
2021/12/16 05:38:44;;;;;;;15.93;10.97;;;8.20;99.90;;;;;;5028557;28;20213;-75
2021/12/16 05:41:12;;;;;;;16.93;11.63;;;8.20;99.90;;;;;;5028422;28;20251;-75
2021/12/16 05:43:39;;;;;;;14.13;10.10;;;8.10;99.90;;;;;;5028202;28;20664;-75
2021/12/16 05:46:08;;;;;;;12.80;10.27;;;8.10;99.90;;;;;;5028203;28;20224;-73
2021/12/16 05:48:42;;;;;;;16.33;11.10;;;8.10;99.90;;;;;;5028119;28;20229;-72
2021/12/16 05:51:11;;;;;;;16.30;11.53;;;8.00;99.90;;;;;;5028453;28;20202;-72
2021/12/16 05:53:42;;;;;;;18.63;11.37;;;8.00;99.90;;;;;;5028259;28;20247;-72
2021/12/16 05:56:09;;;;;;;16.93;11.70;;;8.00;99.90;;;;;;5028191;28;20691;-76
2021/12/16 05:58:37;;;;;;;17.03;11.57;;;8.00;99.90;;;;;;5028534;28;20208;-76
2021/12/16 06:01:10;;;;;;;18.10;11.43;;;8.00;99.90;;;;;;5028335;28;20600;-72
2021/12/16 06:03:37;;;;;;;16.07;11.40;;;7.90;99.90;;;;;;5028102;28;20285;-72
2021/12/16 06:06:07;;;;;;;17.10;11.57;;;7.90;99.90;;;;;;5028244;28;20258;-72
2021/12/16 06:08:34;;;;;;;15.97;11.43;;;7.90;99.90;;;;;;5027786;28;20266;-72
2021/12/16 06:11:17;;;;;;;18.53;11.97;;;8.00;99.90;;;;;;5027913;28;20204;-72
2021/12/16 06:13:56;;;;;;;17.17;11.90;;;8.00;99.90;;;;;;5028295;28;20220;-72
2021/12/16 06:27:23;;;;;;;19.57;12.57;;;8.00;99.90;;;;;;5027506;28;20259;-74
2021/12/16 06:29:51;;;;;;;16.17;12.30;;;8.00;99.90;;;;;;5027776;28;20731;-73
2021/12/16 06:32:19;;;;;;;21.83;12.30;;;8.00;99.90;;;;;;5027660;28;20205;-73
2021/12/16 06:34:46;;;;;;;15.90;11.47;;;8.00;99.90;;;;;;5027658;28;20220;-74
2021/12/16 06:37:13;;;;;;;19.63;11.93;;;8.10;99.90;;;;;;5027784;28;20216;-74
2021/12/16 06:39:40;;;;;;;19.07;12.20;;;8.00;99.90;;;;;;5027639;28;20664;-73
2021/12/16 06:42:09;;;;;;;15.90;11.40;;;8.00;99.90;;;;;;5029298;28;20251;-73
2021/12/16 06:44:43;;;;;;;15.57;11.20;;;8.00;99.90;;;;;;5031477;28;20205;-74
2021/12/16 06:47:16;;;;;;;16.63;11.43;;;8.00;99.90;;;;;;5031441;28;20243;-73
2021/12/16 06:49:45;;;;;;;14.77;11.00;;;8.00;99.90;;;;;;5031428;28;20291;-73
2021/12/16 06:52:15;;;;;;;13.57;10.73;;;8.00;99.90;;;;;;5030866;28;20660;-74
2021/12/16 06:54:55;;;;;;;15.67;11.43;;;8.00;99.90;;;;;;5030555;28;20786;-74
2021/12/16 06:57:27;;;;;;;17.67;10.83;;;8.00;99.90;;;;;;5031310;28;20200;-74
2021/12/16 07:00:03;;;;;;;16.53;10.83;;;8.10;99.90;;;;;;5031275;28;20562;-72
2021/12/16 07:02:48;;;;;;;17.90;10.80;;;8.10;99.90;;;;;;5031189;28;20188;-72
2021/12/16 07:05:18;;;;;;;19.63;11.47;;;8.10;99.90;;;;;;5031310;28;20197;-75
2021/12/16 07:07:45;;;;;;;14.77;11.33;;;8.10;99.90;;;;;;5031103;28;20229;-75
2021/12/16 07:10:14;;;;;;;16.60;10.50;;;8.10;99.90;;;;;;5030756;28;20499;-74
2021/12/16 07:12:47;;;;;;;15.77;11.53;;;8.10;99.90;;;;;;5031017;28;20259;-75
2021/12/16 07:15:18;;;;;;;16.53;11.17;;;8.10;99.90;;;;;;5030819;28;20220;-73
2021/12/16 07:17:45;;;;;;;14.07;10.17;;;8.10;99.90;;;;;;5030625;28;20733;-73
2021/12/16 07:20:17;;;;;;;17.93;11.23;;;8.10;99.90;;;;;;5030619;28;20205;-74
2021/12/16 07:22:44;;;;;;;19.90;11.63;;;8.10;99.90;;;;;;5030625;28;20197;-74
2021/12/16 07:25:14;;;;;;;16.10;10.60;;;8.10;99.90;;;;;;5030389;28;20734;-75
2021/12/16 07:27:41;;;;;;;15.27;10.10;;;8.10;99.90;;;;;;5030661;28;20721;-73
2021/12/16 07:30:11;;;;;;;16.47;11.10;;;8.20;99.90;;;;;;5030745;28;20208;-73
2021/12/16 07:32:39;;;;;;;17.17;10.77;;;8.20;99.90;;;;;;5030532;28;20231;-73
2021/12/16 07:35:10;;;;;;;17.80;10.90;;;8.20;99.90;;;;;;5030214;28;20663;-74
2021/12/16 07:37:38;;;;;;;16.33;9.90;;;8.20;99.90;;;;;;5030488;28;20543;-74
2021/12/16 07:40:08;;;;;;;16.67;10.90;;;8.30;99.90;;;;;;5030424;28;20213;-74
2021/12/16 07:42:44;;;;;;;14.17;10.10;;;8.30;99.90;;;;;;5030494;28;20279;-74
2021/12/16 07:45:12;;;;;;;17.27;10.63;;;8.30;99.90;;;;;;5029919;28;20766;-74
2021/12/16 07:47:41;;;;;;;16.63;10.80;;;8.30;99.90;;;;;;5030476;28;20283;-74
2021/12/16 07:50:09;;;;;;;19.17;10.47;;;8.30;99.90;;;;;;5030274;28;20201;-75
2021/12/16 07:52:37;;;;;;;16.13;11.00;;;8.30;99.90;;;;;;5030304;28;20209;-75
2021/12/16 07:55:05;;;;;;;14.93;10.13;;;8.30;99.90;;;;;;5029153;28;20233;-72
2021/12/16 07:57:32;;;;;;;17.33;10.67;;;8.30;99.90;;;;;;5009858;28;20668;-73
2021/12/16 07:59:58;;;;;;;14.53;10.13;;;8.30;99.90;;;;;;5010249;28;20263;-73
2021/12/16 08:02:26;;;;;;;16.13;10.90;;;8.30;99.90;;;;;;5010143;28;20218;-73
2021/12/16 08:04:54;;;;;;;18.50;11.67;;;8.30;99.90;;;;;;5009733;28;20655;-76
2021/12/16 08:07:21;;;;;;;17.07;10.50;;;8.30;99.90;;;;;;5010105;28;20233;-75
2021/12/16 08:09:49;;;;;;;17.10;10.70;;;8.30;99.90;;;;;;5010013;28;20209;-73
2021/12/16 08:12:17;;;;;;;14.27;10.33;;;8.30;99.90;;;;;;5009600;28;20205;-73
2021/12/16 08:14:45;;;;;;;17.63;10.90;;;8.30;99.90;;;;;;5009730;28;20213;-73
2021/12/16 08:17:13;;;;;;;17.40;10.97;;;8.20;99.90;;;;;;5028422;28;20244;-76
2021/12/16 08:19:39;;;;;;;15.87;10.43;;;8.20;99.90;;;;;;5030138;28;20302;-77
2021/12/16 08:22:08;;;;;;;18.07;10.40;;;8.20;99.90;;;;;;5029481;28;20634;-76
2021/12/16 08:24:36;;;;;;;17.67;10.87;;;8.20;99.90;;;;;;5029111;28;20757;-76
2021/12/16 08:27:03;;;;;;;16.07;10.43;;;8.30;99.90;;;;;;5029117;28;20762;-76
2021/12/16 08:29:30;;;;;;;14.93;11.27;;;8.30;99.90;;;;;;5029330;28;20262;-77
2021/12/16 08:31:57;;;;;;;16.40;10.67;;;8.30;99.90;;;;;;5029598;28;20259;-76
2021/12/16 08:34:25;;;;;;;15.47;11.10;;;8.30;99.90;;;;;;5028722;28;20235;-74
2021/12/16 08:36:51;;;;;;;15.70;10.33;;;8.30;99.90;;;;;;5029025;28;20323;-74
2021/12/16 08:39:20;;;;;;;16.77;11.30;;;8.30;99.90;;;;;;5029289;28;20204;-74
2021/12/16 08:41:49;;;;;;;15.33;11.13;;;8.30;99.90;;;;;;5029047;28;20198;-74
2021/12/16 08:44:16;;;;;;;16.50;10.97;;;8.30;99.90;;;;;;5028883;28;20227;-74
2021/12/16 08:46:47;;;;;;;16.87;11.13;;;8.30;99.90;;;;;;5022431;28;20209;-72
2021/12/16 08:49:15;;;;;;;16.40;11.30;;;8.40;99.90;;;;;;5026923;28;20212;-74
2021/12/16 08:51:44;;;;;;;13.73;10.43;;;8.40;99.90;;;;;;5028561;28;20209;-73
2021/12/16 08:54:12;;;;;;;16.37;10.70;;;8.40;99.90;;;;;;5028187;28;20778;-73
2021/12/16 08:56:40;;;;;;;17.90;10.20;;;8.40;99.90;;;;;;5023949;28;20737;-73
2021/12/16 08:59:08;;;;;;;17.17;10.97;;;8.40;99.90;;;;;;5028965;28;20209;-73
2021/12/16 09:01:38;;;;;;;14.47;10.90;;;8.40;99.90;;;;;;5023306;28;20427;-73
2021/12/16 09:04:05;;;;;;;15.60;10.83;;;8.40;99.90;;;;;;5023941;28;20754;-73
2021/12/16 09:06:33;;;;;;;14.90;10.67;;;8.40;99.90;;;;;;5024331;28;20221;-73
2021/12/16 09:09:00;;;;;;;16.63;10.50;;;8.40;99.90;;;;;;5025643;28;20212;-73
2021/12/16 09:11:30;;;;;;;17.00;10.73;;;8.50;99.90;;;;;;5024737;28;20215;-73
2021/12/16 09:14:00;;;;;;;14.07;10.00;;;8.50;99.90;;;;;;5025231;28;20565;-73
2021/12/16 09:16:29;;;;;;;16.97;9.80;;;8.60;99.90;;;;;;5023993;28;20792;-73
2021/12/16 09:18:56;;;;;;;14.57;9.80;;;8.60;99.90;;;;;;5024650;28;20209;-73
2021/12/16 09:21:25;;;;;;;15.50;9.80;;;8.60;99.90;;;;;;5024286;28;20816;-73
2021/12/16 09:23:55;;;;;;;13.30;9.97;;;8.60;99.90;;;;;;5024686;28;20244;-73
2021/12/16 09:26:22;;;;;;;14.70;10.70;;;8.50;99.90;;;;;;5024358;28;20228;-73
2021/12/16 09:28:49;;;;;;;17.23;10.40;;;8.50;99.90;;;;;;5024440;28;20641;-73
2021/12/16 09:31:19;;;;;;;15.23;10.10;;;8.50;99.90;;;;;;5024302;28;20271;-73
2021/12/16 09:33:50;;;;;;;12.60;9.43;;;8.50;99.90;;;;;;5023840;28;20197;-73
2021/12/16 09:36:24;;;;;;;14.87;9.77;;;8.50;99.90;;;;;;5024071;28;20220;-73
2021/12/16 09:38:51;;;;;;;13.73;9.97;;;8.50;99.90;;;;;;5024477;28;20251;-73
2021/12/16 09:41:18;;;;;;;14.03;9.77;;;8.60;99.90;;;;;;5024547;28;20220;-73
2021/12/16 09:43:48;;;;;;;14.03;9.83;;;8.60;99.90;;;;;;5024556;28;20676;-73
2021/12/16 09:46:24;;;;;;;13.90;9.50;;;8.60;99.90;;;;;;5024411;28;20651;-73
2021/12/16 09:48:51;;;;;;;12.43;9.17;;;8.60;99.90;;;;;;5024342;28;20237;-73
2021/12/16 09:51:23;;;;;;;16.60;10.60;;;8.70;99.90;;;;;;5024137;28;20270;-73
2021/12/16 09:53:51;;;;;;;14.23;8.90;;;8.70;99.90;;;;;;5024272;28;20197;-73
2021/12/16 09:56:19;;;;;;;12.30;9.63;;;8.70;99.90;;;;;;5023803;28;20703;-73
2021/12/16 09:58:49;;;;;;;19.70;9.47;;;8.70;99.90;;;;;;5024248;28;20286;-73
2021/12/16 10:01:17;;;;;;;14.83;9.33;;;8.70;99.90;;;;;;5024793;28;20209;-73
2021/12/16 10:03:47;;;;;;;11.00;8.50;;;8.70;99.90;;;;;;5023797;28;20201;-78
2021/12/16 10:06:15;;;;;;;14.20;9.40;;;8.70;99.90;;;;;;5023583;28;20282;-78
2021/12/16 10:08:42;;;;;;;11.77;9.60;;;8.80;99.90;;;;;;5023974;28;20608;-78
2021/12/16 10:11:09;;;;;;;15.27;9.67;;;8.80;99.90;;;;;;5025224;28;20205;-73
2021/12/16 10:13:44;;;;;;;14.80;9.43;;;8.80;99.90;;;;;;5027232;28;20205;-73
2021/12/16 10:18:56;;;;;;;14.13;9.13;;;8.80;99.90;;;;;;5031088;28;20280;-73
2021/12/16 10:21:23;;;;;;;14.67;8.87;;;8.80;99.90;;;;;;5028881;28;20208;-73
2021/12/16 10:23:51;;;;;;;10.43;9.13;;;8.80;99.90;;;;;;5031211;28;20217;-73
2021/12/16 10:26:20;;;;;;;15.63;9.00;;;8.80;99.90;;;;;;5029973;28;20278;-73
2021/12/16 10:28:50;;;;;;;10.37;8.27;;;8.80;99.90;;;;;;5016790;28;20212;-73
2021/12/16 10:31:24;;;;;;;11.70;9.07;;;8.80;99.90;;;;;;5009383;28;20223;-73
2021/12/16 10:33:54;;;;;;;10.33;8.60;;;8.80;99.90;;;;;;5009228;28;20243;-73
2021/12/16 10:36:26;;;;;;;9.87;8.70;;;8.80;99.90;;;;;;5023204;28;20233;-73
2021/12/16 10:38:56;;;;;;;9.90;8.20;;;8.80;99.90;;;;;;5029119;28;20636;-73
2021/12/16 10:41:26;;;;;;;8.90;8.00;;;8.90;99.90;;;;;;5028237;28;20676;-73
2021/12/16 10:43:56;;;;;;;10.50;8.30;;;8.90;99.90;;;;;;5031122;28;20209;-74
2021/12/16 10:46:26;;;;;;;9.43;7.57;;;8.90;99.90;;;;;;5031052;28;20216;-73
2021/12/16 10:48:56;;;;;;;11.33;7.77;;;8.90;99.90;;;;;;5031099;28;20315;-73
2021/12/16 10:51:29;;;;;;;8.80;7.27;;;8.90;99.90;;;;;;5030873;28;20243;-73
2021/12/16 10:54:04;;;;;;;9.73;8.70;;;9.00;99.90;;;;;;5030841;28;20276;-73
2021/12/16 10:56:35;;;;;;;8.20;7.37;;;8.90;99.90;;;;;;5030649;28;20616;-73
2021/12/16 10:59:05;;;;;;;11.33;7.90;;;9.00;99.90;;;;;;5030588;28;20193;-73
2021/12/16 11:01:45;;;;;;;8.87;7.17;;;9.00;99.90;;;;;;5030764;28;20262;-73
2021/12/16 11:04:16;;;;;;;7.47;6.73;;;9.00;99.90;;;;;;5030554;28;20189;-72
2021/12/16 11:06:46;;;;;;;8.63;6.60;;;9.00;99.90;;;;;;5030955;28;20227;-73
2021/12/16 11:09:35;;;;;;;8.33;6.40;;;9.00;99.90;;;;;;5030441;28;20239;-72
2021/12/16 11:12:24;;;;;;;6.80;6.10;;;9.00;99.90;;;;;;5030339;28;20207;-73
2021/12/16 11:14:53;;;;;;;7.83;6.30;;;9.10;99.90;;;;;;5026648;28;20267;-73
2021/12/16 11:17:23;;;;;;;6.47;5.87;;;9.10;99.90;;;;;;5030347;28;20227;-74
2021/12/16 11:19:57;;;;;;;7.17;6.30;;;9.10;99.90;;;;;;5030538;28;20204;-73
2021/12/16 11:22:29;;;;;;;8.27;5.50;;;9.10;99.90;;;;;;5030439;28;20225;-73
2021/12/16 11:24:56;;;;;;;9.73;5.80;;;9.20;99.90;;;;;;5030185;28;20193;-73
2021/12/16 11:27:33;;;;;;;6.53;5.73;;;9.30;99.90;;;;;;5026747;28;20200;-74
2021/12/16 11:30:15;;;;;;;6.37;5.20;;;9.30;99.90;;;;;;5030416;28;20193;-73
2021/12/16 11:32:44;;;;;;;5.50;5.10;;;9.40;99.90;;;;;;5027228;28;20616;-73
2021/12/16 11:35:35;;;;;;;5.77;5.17;;;9.40;99.90;;;;;;5030149;28;20205;-73
2021/12/16 11:38:09;;;;;;;6.00;5.37;;;9.50;99.90;;;;;;5029887;28;20217;-74
2021/12/16 11:40:51;;;;;;;5.43;4.93;;;9.50;99.90;;;;;;5029791;28;20283;-74
2021/12/16 11:43:18;;;;;;;6.03;5.47;;;9.60;99.90;;;;;;5029967;28;20209;-73
2021/12/16 11:45:45;;;;;;;5.80;5.30;;;9.60;99.90;;;;;;5030275;28;20237;-74
2021/12/16 11:48:28;;;;;;;7.60;5.30;;;9.80;99.90;;;;;;5030378;28;20225;-73
2021/12/16 11:51:08;;;;;;;5.40;4.80;;;10.00;99.90;;;;;;5029837;28;20193;-74
2021/12/16 11:53:38;;;;;;;5.80;5.40;;;10.10;99.90;;;;;;5029879;28;20193;-74
2021/12/16 11:56:10;;;;;;;5.63;5.13;;;10.20;99.90;;;;;;5029883;28;20193;-74
2021/12/16 11:58:37;;;;;;;6.13;5.43;;;10.10;99.90;;;;;;5029530;28;20233;-74
2021/12/16 12:01:22;;;;;;;7.47;5.47;;;10.10;99.90;;;;;;5029533;28;20282;-74
2021/12/16 12:03:49;;;;;;;5.50;5.00;;;10.10;99.90;;;;;;5029841;28;20235;-74
2021/12/16 12:06:34;;;;;;;5.07;4.63;;;10.20;99.90;;;;;;5029211;28;20264;-73
2021/12/16 12:09:05;;;;;;;5.17;4.27;;;10.10;99.90;;;;;;5029726;28;20251;-73
2021/12/16 12:11:34;;;;;;;4.97;4.00;;;10.00;99.90;;;;;;5026520;28;20204;-73
2021/12/16 12:14:06;;;;;;;4.40;4.00;;;9.90;99.90;;;;;;5029776;28;20262;-73
2021/12/16 12:16:35;;;;;;;4.77;4.33;;;9.90;99.90;;;;;;5029747;28;20193;-73
2021/12/16 12:19:09;;;;;;;4.00;3.70;;;9.90;99.90;;;;;;5029408;28;20209;-73
2021/12/16 12:21:38;;;;;;;3.43;3.13;;;9.90;99.90;;;;;;5029199;28;20232;-73
2021/12/16 12:24:13;;;;;;;4.97;3.60;;;9.90;99.90;;;;;;5029352;28;20286;-73
2021/12/16 12:26:46;;;;;;;4.77;3.47;;;9.90;99.90;;;;;;5029613;28;20197;-73
2021/12/16 12:29:17;;;;;;;5.10;3.40;;;10.00;99.90;;;;;;5029011;28;20247;-74
2021/12/16 12:31:48;;;;;;;3.43;3.13;;;10.00;99.90;;;;;;5029341;28;20193;-73
2021/12/16 12:34:15;;;;;;;3.33;3.07;;;10.20;99.90;;;;;;5026865;28;20189;-74
2021/12/16 12:36:42;;;;;;;4.37;3.17;;;10.30;99.90;;;;;;5029020;28;20204;-74
2021/12/16 12:39:17;;;;;;;5.73;3.13;;;10.40;99.90;;;;;;5020782;28;20252;-74
2021/12/16 12:41:45;;;;;;;4.10;2.90;;;10.30;99.90;;;;;;5012996;28;20209;-74
2021/12/16 12:44:12;;;;;;;5.60;3.20;;;10.40;99.90;;;;;;5006698;28;20233;-74
2021/12/16 12:46:39;;;;;;;3.70;2.90;;;10.70;99.90;;;;;;5007100;28;20233;-74
2021/12/16 12:49:09;;;;;;;3.33;2.50;;;10.80;99.90;;;;;;5019459;28;20267;-74
2021/12/16 12:51:39;;;;;;;3.37;2.77;;;10.90;99.90;;;;;;5026253;28;20808;-73
2021/12/16 12:54:21;;;;;;;3.93;2.43;;;11.00;99.90;;;;;;5026513;28;20298;-74
2021/12/16 12:56:49;;;;;;;2.50;2.30;;;10.90;99.90;;;;;;5026243;28;20601;-78
2021/12/16 12:59:17;;;;;;;2.83;2.50;;;10.80;99.90;;;;;;5026873;28;20213;-78
2021/12/16 13:01:47;;;;;;;3.90;2.60;;;10.90;99.90;;;;;;5026719;28;20201;-76
2021/12/16 13:04:17;;;;;;;5.70;2.53;;;10.80;99.90;;;;;;5026510;28;20287;-74
2021/12/16 13:06:53;;;;;;;5.17;2.40;;;10.80;99.90;;;;;;5026901;28;20221;-74
2021/12/16 13:09:26;;;;;;;2.37;2.17;;;10.70;99.90;;;;;;5026718;28;20565;-74
2021/12/16 13:11:53;;;;;;;2.40;2.20;;;10.60;99.90;;;;;;5026302;28;20229;-74
2021/12/16 13:14:24;;;;;;;2.53;2.30;;;10.50;99.90;;;;;;5026141;28;20240;-72
2021/12/16 13:17:21;;;;;;;5.47;2.37;;;10.50;99.90;;;;;;5026329;28;20212;-74
2021/12/16 13:28:44;;;;;;;3.53;2.27;;;10.30;99.90;;;;;;5025569;28;20204;-72
2021/12/16 13:31:34;;;;;;;3.00;2.43;;;10.30;99.90;;;;;;5025945;28;20243;-72
2021/12/16 13:34:02;;;;;;;3.73;2.60;;;10.20;99.90;;;;;;5025826;28;20231;-76
2021/12/16 13:36:43;;;;;;;2.70;2.17;;;10.20;99.90;;;;;;5025525;28;20235;-73
2021/12/16 13:39:13;;;;;;;4.57;2.27;;;10.10;99.90;;;;;;5025695;28;20225;-72
2021/12/16 13:41:57;;;;;;;3.47;2.67;;;10.00;99.90;;;;;;5026082;28;20212;-72
2021/12/16 13:44:54;;;;;;;2.77;2.30;;;10.00;99.90;;;;;;5026045;28;20290;-72
2021/12/16 13:47:44;;;;;;;2.77;2.10;;;10.10;99.90;;;;;;5025075;28;20259;-72
2021/12/16 14:02:13;;;;;;;3.33;2.17;;;10.00;99.90;;;;;;4964685;28;20341;-72
2021/12/16 14:04:58;;;;;;;5.30;2.60;;;9.90;99.90;;;;;;4964363;28;20214;-72
2021/12/16 14:07:54;;;;;;;2.70;2.30;;;9.80;99.90;;;;;;4993070;28;20655;-72
2021/12/16 14:10:32;;;;;;;4.53;2.90;;;9.90;99.90;;;;;;5022185;28;20618;-72
2021/12/16 14:16:25;;;;;;;3.37;2.50;;;9.90;99.90;;;;;;5002969;28;20204;-72
2021/12/16 14:36:01;;;;;;;7.20;3.10;;;9.30;99.90;;;;;;5023518;28;20247;-72
2021/12/16 14:38:53;;;;;;;5.77;4.67;;;9.20;99.90;;;;;;5024475;28;20244;-72
2021/12/16 14:41:41;;;;;;;6.80;4.53;;;9.20;99.90;;;;;;5023105;28;20255;-71
2021/12/16 14:45:10;;;;;;;5.13;3.17;;;9.10;99.90;;;;;;5024470;28;20483;-71
2021/12/16 14:47:15;;;;;;;4.80;3.40;;;9.10;99.90;;;;;;5023499;28;20225;-72
2021/12/16 14:49:47;;;;;;;5.23;3.20;;;9.10;99.90;;;;;;5023873;28;20212;-72
2021/12/16 14:52:15;;;;;;;3.73;3.33;;;9.10;99.90;;;;;;5025505;28;20193;-72
2021/12/16 14:54:54;;;;;;;5.53;3.00;;;9.10;99.90;;;;;;5025335;28;20244;-72
2021/12/16 14:57:23;;;;;;;6.20;3.23;;;9.10;99.90;;;;;;5025487;28;20193;-72
2021/12/16 14:59:52;;;;;;;5.30;3.10;;;9.00;99.90;;;;;;5025606;28;20607;-72
2021/12/16 15:02:20;;;;;;;4.33;2.60;;;8.90;99.90;;;;;;5025762;28;20213;-72
2021/12/16 15:04:48;;;;;;;4.87;2.87;;;8.80;99.90;;;;;;5028666;28;20278;-72
2021/12/16 15:07:15;;;;;;;6.47;3.20;;;8.80;99.90;;;;;;5028742;28;20590;-72
2021/12/16 15:09:43;;;;;;;5.00;2.97;;;8.80;99.90;;;;;;5028855;28;20220;-72
2021/12/16 15:12:16;;;;;;;6.43;2.93;;;8.80;99.90;;;;;;5026473;28;20228;-72
2021/12/16 15:15:04;;;;;;;5.10;2.70;;;8.70;99.90;;;;;;5006558;28;20311;-72
2021/12/16 15:31:44;;;;;;;5.70;3.00;;;8.70;99.90;;;;;;5007297;28;20359;-72
2021/12/16 15:32:49;;;;;;;3.27;2.30;;;8.50;99.90;;;;;;5026692;28;20192;-72
2021/12/16 15:37:55;;;;;;;7.47;2.83;;;8.50;99.90;;;;;;5025827;28;20263;-72
2021/12/16 15:40:35;;;;;;;8.57;2.73;;;8.50;99.90;;;;;;5025907;28;20209;-72
2021/12/16 15:43:04;;;;;;;7.37;2.80;;;8.30;99.90;;;;;;5025780;28;20311;-72
2021/12/16 15:45:35;;;;;;;7.47;2.83;;;8.30;99.90;;;;;;5023322;28;20707;-72
2021/12/16 15:48:06;;;;;;;3.70;2.97;;;8.30;99.90;;;;;;5026366;28;20197;-72
2021/12/16 15:50:36;;;;;;;4.97;3.20;;;8.30;99.90;;;;;;5026239;28;20601;-72
2021/12/16 15:53:07;;;;;;;4.93;2.83;;;8.30;99.90;;;;;;5026546;28;20275;-72
2021/12/16 15:55:39;;;;;;;5.30;3.00;;;8.20;99.90;;;;;;5026161;28;20298;-72
2021/12/16 15:58:10;;;;;;;7.97;3.63;;;8.20;99.90;;;;;;5026359;28;20444;-72